createdAt,value
2022-10-05T00:00:33.660Z,101018.66
2022-10-05T00:03:10.727Z,101026.34
2022-10-05T00:05:39.008Z,101010.25
2022-10-05T00:08:17.301Z,101018.78
2022-10-05T00:10:46.373Z,101017.53
2022-10-05T00:13:24.201Z,101012.22
2022-10-05T00:15:58.309Z,101013.06
2022-10-05T00:18:27.269Z,101003.47
2022-10-05T00:20:55.260Z,101003.28
2022-10-05T00:23:26.366Z,100994.13
2022-10-05T00:25:53.527Z,100987.84
2022-10-05T00:28:28.189Z,101002.59
2022-10-05T00:30:59.452Z,101006.00
2022-10-05T00:33:28.327Z,101010.03
2022-10-05T00:35:55.871Z,101016.28
2022-10-05T00:38:23.661Z,101003.47
2022-10-05T00:41:16.914Z,101021.75
2022-10-05T00:44:05.822Z,101029.97
2022-10-05T00:46:57.511Z,101034.63
2022-10-05T00:49:43.237Z,101033.28
2022-10-05T00:52:49.473Z,101034.09
2022-10-05T00:55:22.642Z,101043.50
2022-10-05T00:58:08.335Z,101055.41
2022-10-05T01:00:50.281Z,101067.06
2022-10-05T01:03:38.308Z,101072.44
2022-10-05T01:06:23.510Z,101076.50
2022-10-05T01:09:15.373Z,101075.88
2022-10-05T01:11:54.507Z,101070.72
2022-10-05T01:14:45.961Z,101063.88
2022-10-05T01:17:24.724Z,101053.41
2022-10-05T01:20:27.305Z,101065.69
2022-10-05T01:23:16.148Z,101064.63
2022-10-05T01:25:49.628Z,101059.63
2022-10-05T01:28:28.602Z,101057.75
2022-10-05T01:31:33.038Z,101058.91
2022-10-05T01:34:11.662Z,101066.91
2022-10-05T01:36:45.100Z,101073.75
2022-10-05T01:39:33.739Z,101080.69
2022-10-05T01:42:13.164Z,101091.44
2022-10-05T01:44:48.840Z,101091.16
2022-10-05T01:47:44.793Z,101079.34
2022-10-05T01:50:44.087Z,101091.81
2022-10-05T01:53:40.372Z,101105.13
2022-10-05T01:56:30.775Z,101108.53
2022-10-05T01:59:24.629Z,101095.13
2022-10-05T02:02:01.652Z,101084.34
2022-10-05T02:05:02.309Z,101079.88
2022-10-05T02:07:46.060Z,101076.84
2022-10-05T02:10:19.141Z,101078.81
2022-10-05T02:12:51.597Z,101082.50
2022-10-05T02:15:26.554Z,101080.53
2022-10-05T02:17:59.905Z,101100.97
2022-10-05T02:20:33.609Z,101100.75
2022-10-05T02:23:09.805Z,101114.75
2022-10-05T02:25:39.988Z,101108.56
2022-10-05T02:28:16.941Z,101104.03
2022-10-05T02:31:11.856Z,101105.91
2022-10-05T02:33:39.108Z,101090.16
2022-10-05T02:36:35.262Z,101102.13
2022-10-05T02:39:06.432Z,101109.84
2022-10-05T02:41:33.541Z,101112.25
2022-10-05T02:44:32.331Z,101122.78
2022-10-05T02:46:59.720Z,101123.69
2022-10-05T02:50:00.808Z,101126.50
2022-10-05T02:52:44.337Z,101130.13
2022-10-05T02:55:35.056Z,101151.88
2022-10-05T02:58:08.443Z,101140.50
2022-10-05T03:01:05.163Z,101173.16
2022-10-05T03:03:45.092Z,101170.28
2022-10-05T03:06:35.337Z,101162.06
2022-10-05T03:09:05.566Z,101158.00
2022-10-05T03:11:51.853Z,101171.72
2022-10-05T03:14:42.597Z,101176.38
2022-10-05T03:17:15.817Z,101171.09
2022-10-05T03:20:03.556Z,101169.47
2022-10-05T03:22:51.383Z,101162.28
2022-10-05T03:25:53.994Z,101167.72
2022-10-05T03:28:40.157Z,101150.22
2022-10-05T03:31:31.606Z,101132.28
2022-10-05T03:34:22.162Z,101163.88
2022-10-05T03:36:55.438Z,101148.38
2022-10-05T03:39:37.685Z,101158.44
2022-10-05T03:42:09.585Z,101152.22
2022-10-05T03:44:55.418Z,101140.25
2022-10-05T03:47:51.717Z,101143.06
2022-10-05T03:50:19.212Z,101158.53
2022-10-05T03:52:56.824Z,101166.41
2022-10-05T03:55:46.323Z,101180.84
2022-10-05T03:58:26.351Z,101178.06
2022-10-05T04:00:59.199Z,101185.34
2022-10-05T04:03:35.018Z,101199.03
2022-10-05T04:06:14.112Z,101194.28
2022-10-05T04:09:03.054Z,101192.53
2022-10-05T04:11:37.051Z,101191.47
2022-10-05T04:14:16.220Z,101199.34
2022-10-05T04:16:58.549Z,101204.03
2022-10-05T04:19:45.029Z,101188.28
2022-10-05T04:22:22.804Z,101192.88
2022-10-05T04:25:01.533Z,101189.59
2022-10-05T04:27:39.807Z,101188.56
2022-10-05T04:30:19.543Z,101182.66
2022-10-05T04:32:58.199Z,101199.19
2022-10-05T04:35:52.598Z,101195.38
2022-10-05T04:38:38.990Z,101194.56
2022-10-05T04:41:28.099Z,101218.13
2022-10-05T04:44:07.673Z,101227.38
2022-10-05T04:47:03.549Z,101220.34
2022-10-05T04:49:55.542Z,101212.06
2022-10-05T04:52:41.306Z,101212.81
2022-10-05T04:55:31.834Z,101218.47
2022-10-05T04:58:42.535Z,101223.47
2022-10-05T05:01:48.328Z,101243.66
2022-10-05T05:04:40.660Z,101258.66
2022-10-05T05:07:37.350Z,101238.69
2022-10-05T05:10:33.050Z,101248.97
2022-10-05T05:13:31.093Z,101241.31
2022-10-05T05:16:27.621Z,101248.09
2022-10-05T05:19:13.238Z,101244.75
2022-10-05T05:21:59.079Z,101236.47
2022-10-05T05:24:39.470Z,101242.81
2022-10-05T05:27:38.949Z,101250.41
2022-10-05T05:30:22.090Z,101258.84
2022-10-05T05:33:03.479Z,101257.91
2022-10-05T05:35:57.968Z,101261.66
2022-10-05T05:38:50.621Z,101258.84
2022-10-05T05:41:39.588Z,101266.03
2022-10-05T05:44:28.212Z,101258.66
2022-10-05T05:47:13.662Z,101268.84
2022-10-05T05:50:09.340Z,101264.06
2022-10-05T05:52:47.681Z,101260.00
2022-10-05T05:55:33.371Z,101274.19
2022-10-05T05:58:14.352Z,101278.97
2022-10-05T06:01:20.206Z,101285.63
2022-10-05T06:03:59.608Z,101282.69
2022-10-05T06:06:38.549Z,101296.31
2022-10-05T06:09:24.184Z,101306.13
2022-10-05T06:12:14.630Z,101303.88
2022-10-05T06:15:26.096Z,101321.69
2022-10-05T06:17:57.460Z,101316.69
2022-10-05T06:20:39.669Z,101319.91
2022-10-05T06:23:18.884Z,101307.50
2022-10-05T06:26:09.749Z,101312.25
2022-10-05T06:28:38.694Z,101321.03
2022-10-05T06:31:30.024Z,101339.41
2022-10-05T06:34:05.776Z,101331.25
2022-10-05T06:36:59.434Z,101330.63
2022-10-05T06:39:47.248Z,101329.97
2022-10-05T06:42:32.677Z,101334.06
2022-10-05T06:45:44.886Z,101334.94
2022-10-05T06:48:36.254Z,101340.22
2022-10-05T06:51:46.706Z,101333.88
2022-10-05T06:54:26.049Z,101352.03
2022-10-05T06:57:17.282Z,101351.19
2022-10-05T06:59:44.484Z,101336.78
2022-10-05T07:02:29.812Z,101340.84
2022-10-05T07:05:39.156Z,101344.53
2022-10-05T07:08:15.855Z,101354.38
2022-10-05T07:11:05.520Z,101356.94
2022-10-05T07:13:39.469Z,101335.69
2022-10-05T07:16:10.461Z,101342.81
2022-10-05T07:18:44.077Z,101332.84
2022-10-05T07:21:14.570Z,101343.34
2022-10-05T07:23:46.413Z,101342.22
2022-10-05T07:26:33.247Z,101352.03
2022-10-05T07:29:20.343Z,101326.47
2022-10-05T07:32:12.383Z,101341.63
2022-10-05T07:34:48.101Z,101352.09
2022-10-05T07:37:55.719Z,101347.59
2022-10-05T07:40:58.605Z,101356.47
2022-10-05T07:44:05.014Z,101357.63
2022-10-05T07:46:45.890Z,101358.63
2022-10-05T07:49:39.522Z,101358.78
2022-10-05T07:52:14.185Z,101351.78
2022-10-05T07:55:00.278Z,101360.06
2022-10-05T07:57:51.940Z,101363.22
2022-10-05T08:00:20.722Z,101355.56
2022-10-05T08:03:14.897Z,101372.00
2022-10-05T08:05:47.093Z,101363.50
2022-10-05T08:08:31.674Z,101361.34
2022-10-05T08:11:11.293Z,101355.34
2022-10-05T08:13:41.742Z,101350.34
2022-10-05T08:16:15.674Z,101341.03
2022-10-05T08:18:51.289Z,101336.22
2022-10-05T08:21:27.971Z,101332.72
2022-10-05T08:23:58.280Z,101320.25
2022-10-05T08:27:02.820Z,101334.09
2022-10-05T08:29:37.587Z,101329.13
2022-10-05T08:32:26.651Z,101332.56
2022-10-05T08:35:12.699Z,101328.16
2022-10-05T08:37:42.520Z,101320.66
2022-10-05T08:40:18.938Z,101330.88
2022-10-05T08:43:10.452Z,101338.53
2022-10-05T08:45:49.768Z,101341.88
2022-10-05T08:48:23.322Z,101346.69
2022-10-05T08:50:59.612Z,101343.00
2022-10-05T08:54:02.356Z,101344.91
2022-10-05T08:56:35.446Z,101339.63
2022-10-05T08:59:17.874Z,101335.09
2022-10-05T09:02:23.380Z,101344.31
2022-10-05T09:05:21.174Z,101336.59
2022-10-05T09:08:27.305Z,101332.72
2022-10-05T09:11:19.388Z,101331.47
2022-10-05T09:14:17.577Z,101337.19
2022-10-05T09:16:51.642Z,101327.41
2022-10-05T09:19:52.941Z,101331.47
2022-10-05T09:22:54.796Z,101331.59
2022-10-05T09:25:58.036Z,101327.59
2022-10-05T09:28:40.384Z,101314.38
2022-10-05T09:31:19.589Z,101316.91
2022-10-05T09:34:13.257Z,101325.50
2022-10-05T09:37:02.935Z,101315.53
2022-10-05T09:39:36.190Z,101311.88
2022-10-05T09:42:28.920Z,101307.66
2022-10-05T09:45:21.566Z,101313.09
2022-10-05T09:48:10.217Z,101317.13
2022-10-05T09:50:41.845Z,101313.19
2022-10-05T09:53:38.808Z,101311.75
2022-10-05T09:59:13.384Z,101297.97
2022-10-05T10:02:35.217Z,101307.91
2022-10-05T10:05:09.537Z,101304.97
2022-10-05T10:08:05.857Z,101304.63
2022-10-05T10:10:53.034Z,101272.50
2022-10-05T10:13:43.246Z,101288.47
2022-10-05T10:16:27.876Z,101284.44
2022-10-05T10:19:20.077Z,101279.75
2022-10-05T10:21:56.349Z,101269.59
2022-10-05T10:24:57.325Z,101279.19
2022-10-05T10:27:44.654Z,101268.69
2022-10-05T10:30:41.279Z,101274.47
2022-10-05T10:33:21.141Z,101276.50
2022-10-05T10:36:13.775Z,101284.81
2022-10-05T10:38:50.377Z,101265.97
2022-10-05T10:41:52.609Z,101254.34
2022-10-05T10:44:35.029Z,101265.19
2022-10-05T10:47:13.675Z,101267.13
2022-10-05T10:50:14.835Z,101261.81
2022-10-05T10:53:02.002Z,101277.28
2022-10-05T10:55:48.072Z,101279.22
2022-10-05T10:58:37.010Z,101281.84
2022-10-05T11:01:29.361Z,101283.22
2022-10-05T11:04:09.944Z,101270.09
2022-10-05T11:07:03.080Z,101280.53
2022-10-05T11:09:34.854Z,101270.44
2022-10-05T11:12:22.153Z,101262.22
2022-10-05T11:15:11.181Z,101272.69
2022-10-05T11:17:59.965Z,101271.88
2022-10-05T11:20:39.291Z,101272.56
2022-10-05T11:23:25.345Z,101265.09
2022-10-05T11:26:10.644Z,101277.47
2022-10-05T11:29:18.095Z,101272.00
2022-10-05T11:32:29.990Z,101273.81
2022-10-05T11:35:00.136Z,101280.06
2022-10-05T11:37:46.367Z,101280.91
2022-10-05T11:40:33.427Z,101285.16
2022-10-05T11:43:22.971Z,101274.16
2022-10-05T11:46:08.582Z,101283.03
2022-10-05T11:48:54.433Z,101291.31
2022-10-05T11:51:35.052Z,101290.91
2022-10-05T11:54:10.013Z,101296.50
2022-10-05T11:56:40.801Z,101260.56
2022-10-05T11:59:35.447Z,101307.31
2022-10-05T12:02:48.437Z,101316.53
2022-10-05T12:05:42.155Z,101309.19
2022-10-05T12:08:17.150Z,101299.91
2022-10-05T12:10:58.866Z,101303.63
2022-10-05T12:13:51.566Z,101310.59
2022-10-05T12:17:01.309Z,101310.28
2022-10-05T12:19:44.334Z,101298.25
2022-10-05T12:22:49.791Z,101300.25
2022-10-05T12:25:37.953Z,101316.28
2022-10-05T12:28:11.491Z,101285.16
2022-10-05T12:30:57.933Z,101302.44
2022-10-05T12:33:41.204Z,101305.56
2022-10-05T12:36:15.283Z,101304.78
2022-10-05T12:39:17.272Z,101301.06
2022-10-05T12:41:54.924Z,101306.91
2022-10-05T12:44:50.158Z,101297.47
2022-10-05T12:47:39.081Z,101302.19
2022-10-05T12:50:12.353Z,101312.72
2022-10-05T12:53:06.109Z,101321.47
2022-10-05T12:55:42.458Z,101317.81
2022-10-05T12:58:37.294Z,101328.47
2022-10-05T13:01:19.137Z,101331.44
2022-10-05T13:04:04.091Z,101322.66
2022-10-05T13:06:40.135Z,101318.00
2022-10-05T13:09:30.592Z,101308.88
2022-10-05T13:12:04.242Z,101319.97
2022-10-05T13:14:53.842Z,101328.47
2022-10-05T13:17:23.986Z,101333.41
2022-10-05T13:20:25.198Z,101322.06
2022-10-05T13:23:18.590Z,101310.63
2022-10-05T13:26:11.077Z,101311.50
2022-10-05T13:28:50.713Z,101322.41
2022-10-05T13:31:27.144Z,101313.31
2022-10-05T13:34:17.949Z,101321.81
2022-10-05T13:37:31.972Z,101306.81
2022-10-05T13:40:25.041Z,101321.22
2022-10-05T13:43:11.937Z,101311.53
2022-10-05T13:45:52.566Z,101318.38
2022-10-05T13:49:08.453Z,101322.91
2022-10-05T13:52:10.891Z,101330.25
2022-10-05T13:55:12.904Z,101309.19
2022-10-05T13:57:59.899Z,101316.34
2022-10-05T14:00:28.101Z,101303.50
2022-10-05T14:02:57.930Z,101319.47
2022-10-05T14:05:31.360Z,101324.09
2022-10-05T14:08:04.330Z,101324.31
2022-10-05T14:10:38.782Z,101325.00
2022-10-05T14:13:43.535Z,101323.63
2022-10-05T14:16:13.886Z,101325.97
2022-10-05T14:18:55.303Z,101321.00
2022-10-05T14:21:30.492Z,101316.50
2022-10-05T14:24:44.616Z,101320.03
2022-10-05T14:27:22.961Z,101309.38
2022-10-05T14:30:13.311Z,101317.03
2022-10-05T14:32:59.272Z,101308.47
2022-10-05T14:35:30.629Z,101322.41
2022-10-05T14:38:02.402Z,101328.41
2022-10-05T14:40:34.287Z,101338.31
2022-10-05T14:43:14.529Z,101340.50
2022-10-05T14:45:58.196Z,101345.00
2022-10-05T14:48:28.773Z,101343.63
2022-10-05T14:51:03.546Z,101335.72
2022-10-05T14:53:40.003Z,101341.25
2022-10-05T14:56:40.695Z,101336.13
2022-10-05T14:59:26.242Z,101345.25
2022-10-05T15:02:35.426Z,101339.75
2022-10-05T15:05:25.667Z,101337.63
2022-10-05T15:07:57.671Z,101341.53
2022-10-05T15:10:31.687Z,101362.97
2022-10-05T15:13:17.258Z,101359.31
2022-10-05T15:15:55.697Z,101361.66
2022-10-05T15:18:37.534Z,101355.00
2022-10-05T15:21:23.910Z,101370.97
2022-10-05T15:24:06.309Z,101358.84
2022-10-05T15:26:39.270Z,101350.69
2022-10-05T15:29:27.433Z,101357.22
2022-10-05T15:32:08.969Z,101365.22
2022-10-05T15:35:04.189Z,101355.78
2022-10-05T15:37:43.275Z,101379.78
2022-10-05T15:40:37.000Z,101390.91
2022-10-05T15:43:16.247Z,101391.63
2022-10-05T15:46:10.674Z,101383.63
2022-10-05T15:48:56.199Z,101390.94
2022-10-05T15:51:51.192Z,101384.28
2022-10-05T15:54:43.559Z,101388.44
2022-10-05T15:57:32.782Z,101394.16
2022-10-05T16:00:12.549Z,101396.31
2022-10-05T16:02:48.954Z,101407.97
2022-10-05T16:05:16.761Z,101408.47
2022-10-05T16:08:10.926Z,101399.84
2022-10-05T16:10:44.224Z,101408.97
2022-10-05T16:13:14.459Z,101402.00
2022-10-05T16:15:50.213Z,101402.84
2022-10-05T16:18:41.590Z,101414.81
2022-10-05T16:21:22.831Z,101414.66
2022-10-05T16:23:59.529Z,101416.47
2022-10-05T16:26:26.661Z,101413.63
2022-10-05T16:29:09.837Z,101415.41
2022-10-05T16:31:54.535Z,101420.72
2022-10-05T16:34:54.478Z,101413.25
2022-10-05T16:37:38.012Z,101412.16
2022-10-05T16:40:08.500Z,101411.25
2022-10-05T16:42:47.816Z,101408.47
2022-10-05T16:45:27.197Z,101404.00
2022-10-05T16:48:17.812Z,101401.50
2022-10-05T16:51:25.520Z,101404.50
2022-10-05T16:54:20.347Z,101405.69
2022-10-05T16:57:10.251Z,101410.47
2022-10-05T16:59:55.739Z,101411.16
2022-10-05T17:02:42.034Z,101396.50
2022-10-05T17:05:41.649Z,101405.00
2022-10-05T17:08:36.861Z,101413.31
2022-10-05T17:11:41.289Z,101416.31
2022-10-05T17:14:16.329Z,101407.47
2022-10-05T17:17:05.557Z,101412.16
2022-10-05T17:19:57.113Z,101405.66
2022-10-05T17:22:29.562Z,101402.50
2022-10-05T17:25:19.447Z,101405.16
2022-10-05T17:28:24.573Z,101410.31
2022-10-05T17:31:15.043Z,101406.31
2022-10-05T17:34:00.741Z,101417.81
2022-10-05T17:36:43.140Z,101403.81
2022-10-05T17:39:15.177Z,101414.13
2022-10-05T17:41:43.430Z,101406.94
2022-10-05T17:44:14.169Z,101399.00
2022-10-05T17:46:46.000Z,101402.94
2022-10-05T17:49:37.989Z,101411.13
2022-10-05T17:52:40.928Z,101402.97
2022-10-05T17:55:34.307Z,101417.28
2022-10-05T17:58:24.566Z,101410.13
2022-10-05T18:01:25.418Z,101410.13
2022-10-05T18:03:52.950Z,101410.31
2022-10-05T18:06:26.647Z,101416.13
2022-10-05T18:09:13.029Z,101422.78
2022-10-05T18:11:48.210Z,101416.47
2022-10-05T18:14:23.483Z,101416.97
2022-10-05T18:17:11.398Z,101418.47
2022-10-05T18:19:39.818Z,101411.31
2022-10-05T18:22:28.337Z,101413.28
2022-10-05T18:25:27.371Z,101406.97
2022-10-05T18:28:29.059Z,101416.94
2022-10-05T18:31:04.511Z,101419.72
2022-10-05T18:33:49.461Z,101417.06
2022-10-05T18:36:37.866Z,101431.88
2022-10-05T18:39:27.147Z,101418.69
2022-10-05T18:42:20.862Z,101405.56
2022-10-05T18:45:02.045Z,101422.81
2022-10-05T18:48:05.107Z,101429.28
2022-10-05T18:50:44.562Z,101434.09
2022-10-05T18:53:30.740Z,101431.78
2022-10-05T18:56:13.998Z,101438.34
2022-10-05T18:58:54.508Z,101438.22
2022-10-05T19:01:47.255Z,101439.78
2022-10-05T19:04:37.579Z,101446.91
2022-10-05T19:07:21.801Z,101450.16
2022-10-05T19:09:52.263Z,101442.66
2022-10-05T19:12:41.739Z,101452.84
2022-10-05T19:15:35.278Z,101450.53
2022-10-05T19:18:33.570Z,101429.56
2022-10-05T19:21:17.150Z,101446.19
2022-10-05T19:24:11.937Z,101444.88
2022-10-05T19:27:01.142Z,101440.72
2022-10-05T19:29:34.470Z,101437.72
2022-10-05T19:32:16.871Z,101430.69
2022-10-05T19:34:54.337Z,101441.25
2022-10-05T19:37:31.263Z,101436.38
2022-10-05T19:40:11.527Z,101428.84
2022-10-05T19:42:59.943Z,101439.09
2022-10-05T19:45:29.641Z,101442.31
2022-10-05T19:48:09.088Z,101447.72
2022-10-05T19:50:40.794Z,101428.75
2022-10-05T19:53:15.396Z,101442.16
2022-10-05T19:55:45.898Z,101439.69
2022-10-05T19:58:26.851Z,101441.72
2022-10-05T20:01:03.460Z,101444.13
2022-10-05T20:03:38.152Z,101432.25
2022-10-05T20:06:08.490Z,101439.97
2022-10-05T20:08:44.511Z,101440.00
2022-10-05T20:11:23.435Z,101418.09
2022-10-05T20:13:53.568Z,101448.81
2022-10-05T20:16:50.617Z,101432.38
2022-10-05T20:19:56.064Z,101446.22
2022-10-05T20:22:26.664Z,101446.25
2022-10-05T20:24:56.966Z,101444.56
2022-10-05T20:27:44.870Z,101441.44
2022-10-05T20:30:19.022Z,101449.88
2022-10-05T20:32:50.965Z,101442.19
2022-10-05T20:35:21.202Z,101451.69
2022-10-05T20:37:50.333Z,101429.97
2022-10-05T20:40:20.095Z,101439.56
2022-10-05T20:42:48.435Z,101447.28
2022-10-05T20:45:16.116Z,101437.50
2022-10-05T20:47:43.499Z,101440.63
2022-10-05T20:50:11.459Z,101436.53
2022-10-05T20:52:38.997Z,101448.50
2022-10-05T20:55:09.128Z,101449.44
2022-10-05T20:57:41.961Z,101450.91
2022-10-05T21:00:11.631Z,101435.78
2022-10-05T21:02:39.703Z,101440.56
2022-10-05T21:05:08.041Z,101455.03
2022-10-05T21:07:35.681Z,101447.19
2022-10-05T21:10:03.939Z,101464.94
2022-10-05T21:12:34.117Z,101459.34
2022-10-05T21:15:01.848Z,101452.03
2022-10-05T21:17:31.807Z,101461.91
2022-10-05T21:20:00.100Z,101462.84
2022-10-05T21:22:27.607Z,101454.28
2022-10-05T21:24:55.955Z,101456.06
2022-10-05T21:27:23.943Z,101447.50
2022-10-05T21:29:51.711Z,101461.16
2022-10-05T21:32:19.069Z,101442.63
2022-10-05T21:34:46.406Z,101461.56
2022-10-05T21:37:15.582Z,101469.34
2022-10-05T21:39:43.014Z,101453.44
2022-10-05T21:42:11.012Z,101459.38
2022-10-05T21:44:41.582Z,101472.09
2022-10-05T21:47:09.653Z,101467.06
2022-10-05T21:49:37.737Z,101473.22
2022-10-05T21:52:05.676Z,101478.75
2022-10-05T21:54:34.214Z,101467.69
2022-10-05T21:57:02.974Z,101477.28
2022-10-05T21:59:34.208Z,101485.16
2022-10-05T22:02:02.495Z,101486.25
2022-10-05T22:04:29.986Z,101477.31
2022-10-05T22:06:57.782Z,101468.97
2022-10-05T22:09:25.051Z,101473.22
2022-10-05T22:11:52.399Z,101476.28
2022-10-05T22:14:19.621Z,101487.38
2022-10-05T22:16:47.445Z,101480.91
2022-10-05T22:19:18.851Z,101489.09
2022-10-05T22:21:46.087Z,101484.34
2022-10-05T22:24:14.659Z,101483.03
2022-10-05T22:26:45.509Z,101470.19
2022-10-05T22:29:14.977Z,101480.22
2022-10-05T22:31:42.640Z,101489.84
2022-10-05T22:34:09.947Z,101477.44
2022-10-05T22:36:37.751Z,101488.00
2022-10-05T22:39:05.104Z,101490.84
2022-10-05T22:41:32.395Z,101482.50
2022-10-05T22:44:00.618Z,101490.91
2022-10-05T22:46:28.120Z,101492.19
2022-10-05T22:48:55.690Z,101485.84
2022-10-05T22:51:22.951Z,101517.53
2022-10-05T22:53:51.050Z,101489.13
2022-10-05T22:56:18.784Z,101491.22
2022-10-05T22:58:46.995Z,101505.00
2022-10-05T23:01:17.254Z,101502.00
2022-10-05T23:03:45.271Z,101495.66
2022-10-05T23:06:16.223Z,101499.00
2022-10-05T23:08:45.423Z,101493.44
2022-10-05T23:11:18.104Z,101510.19
2022-10-05T23:13:45.733Z,101495.03
2022-10-05T23:16:19.776Z,101499.00
2022-10-05T23:18:52.450Z,101504.69
2022-10-05T23:21:22.006Z,101502.81
2022-10-05T23:23:53.087Z,101500.06
2022-10-05T23:26:22.919Z,101507.63
2022-10-05T23:28:53.713Z,101494.84
2022-10-05T23:31:24.038Z,101507.44
2022-10-05T23:33:52.985Z,101498.25
2022-10-05T23:36:31.583Z,101501.91
2022-10-05T23:38:59.452Z,101490.72
2022-10-05T23:41:26.932Z,101494.94
2022-10-05T23:43:57.335Z,101489.34
2022-10-05T23:46:25.044Z,101491.00
2022-10-05T23:48:53.795Z,101495.47
2022-10-05T23:51:21.610Z,101496.88
2022-10-05T23:53:48.826Z,101508.09
2022-10-05T23:56:16.135Z,101503.69
2022-10-05T23:58:43.431Z,101507.88
